DLH966 EDDF-EGNT
Flight info
| Callsign | DLH966 |
|---|---|
| Flight time | 1h 28m |
| Altitude | 38000 |
| Route | OBOKA3W/25C OBOKA Z28 DIBIR DCT BUDIP DCT MIMVA L602 NALAX L46 RIMTO |
| Aircraft | A320/M-SDE3FGHIRWY/LB1 |
Departure
| Time | 2026-05-04 17:14 |
|---|---|
| Airport | Frankfurt Main Airport (EDDF) |
Arrival
| Time | 2026-05-04 18:42 |
|---|---|
| Airport | Newcastle International Airport (EGNT) |
| Time | Latitude | Longitude | Altitude | Speed | Heading |
|---|---|---|---|---|---|
| 2026-05-04 16:26 | 50.04615 | 8.57198 | 357 ft | 0 kts | 3° |
| 2026-05-04 16:59 | 50.04614 | 8.57198 | 365 ft | 1 kts | 3° |
| 2026-05-04 17:00 | 50.04528 | 8.57151 | 364 ft | 4 kts | 69° |
| 2026-05-04 17:00 | 50.04520 | 8.57117 | 360 ft | 1 kts | 70° |
| 2026-05-04 17:01 | 50.04520 | 8.57116 | 360 ft | 0 kts | 70° |
| 2026-05-04 17:06 | 50.04540 | 8.57201 | 362 ft | 10 kts | 69° |
| 2026-05-04 17:06 | 50.04569 | 8.57322 | 358 ft | 12 kts | 69° |
| 2026-05-04 17:07 | 50.04624 | 8.57550 | 359 ft | 14 kts | 69° |
| 2026-05-04 17:07 | 50.04647 | 8.57645 | 363 ft | 14 kts | 69° |
| 2026-05-04 17:07 | 50.04690 | 8.57823 | 363 ft | 11 kts | 70° |
| 2026-05-04 17:07 | 50.04706 | 8.57896 | 360 ft | 6 kts | 75° |
| 2026-05-04 17:08 | 50.04699 | 8.57955 | 361 ft | 5 kts | 125° |
| 2026-05-04 17:08 | 50.04639 | 8.57998 | 364 ft | 4 kts | 159° |
| 2026-05-04 17:08 | 50.04587 | 8.58033 | 361 ft | 8 kts | 150° |
| 2026-05-04 17:09 | 50.04565 | 8.58109 | 363 ft | 14 kts | 83° |
| 2026-05-04 17:09 | 50.04594 | 8.58238 | 368 ft | 10 kts | 69° |
| 2026-05-04 17:09 | 50.04616 | 8.58326 | 371 ft | 10 kts | 69° |
| 2026-05-04 17:10 | 50.04654 | 8.58529 | 369 ft | 5 kts | 102° |
| 2026-05-04 17:10 | 50.04577 | 8.58599 | 370 ft | 7 kts | 158° |
| 2026-05-04 17:11 | 50.04537 | 8.58623 | 371 ft | 6 kts | 159° |
| 2026-05-04 17:11 | 50.04500 | 8.58623 | 371 ft | 5 kts | 212° |
| 2026-05-04 17:11 | 50.04482 | 8.58572 | 370 ft | 0 kts | 248° |
| 2026-05-04 17:12 | 50.04477 | 8.58553 | 370 ft | 11 kts | 248° |
| 2026-05-04 17:13 | 50.03710 | 8.55273 | 654 ft | 166 kts | 253° |
| 2026-05-04 17:14 | 50.02277 | 8.49949 | 2430 ft | 197 kts | 234° |
| 2026-05-04 17:14 | 50.01224 | 8.48566 | 3088 ft | 201 kts | 208° |
| 2026-05-04 17:14 | 49.98481 | 8.47621 | 4364 ft | 210 kts | 188° |
| 2026-05-04 17:15 | 49.97022 | 8.47297 | 5163 ft | 212 kts | 188° |
| 2026-05-04 17:15 | 49.94073 | 8.46162 | 6489 ft | 236 kts | 196° |
| 2026-05-04 17:16 | 49.91148 | 8.43744 | 8251 ft | 245 kts | 224° |
| 2026-05-04 17:16 | 49.88707 | 8.36677 | 10916 ft | 257 kts | 258° |
| 2026-05-04 17:17 | 49.88648 | 8.33811 | 11446 ft | 276 kts | 272° |
| 2026-05-04 17:17 | 49.90100 | 8.24357 | 12526 ft | 338 kts | 300° |
| 2026-05-04 17:18 | 49.91505 | 8.21375 | 12784 ft | 345 kts | 303° |
| 2026-05-04 17:18 | 49.94503 | 8.15529 | 13604 ft | 355 kts | 313° |
| 2026-05-04 17:19 | 49.98266 | 8.10451 | 15024 ft | 361 kts | 316° |
| 2026-05-04 17:19 | 50.02114 | 8.05307 | 16358 ft | 368 kts | 316° |
| 2026-05-04 17:20 | 50.06035 | 8.00056 | 17702 ft | 375 kts | 316° |
| 2026-05-04 17:20 | 50.10025 | 7.94697 | 18929 ft | 382 kts | 316° |
| 2026-05-04 17:20 | 50.12043 | 7.91977 | 19487 ft | 385 kts | 316° |
| 2026-05-04 17:21 | 50.16102 | 7.86507 | 20591 ft | 391 kts | 316° |
| 2026-05-04 17:21 | 50.20235 | 7.80921 | 21709 ft | 396 kts | 315° |
| 2026-05-04 17:22 | 50.22321 | 7.78094 | 22244 ft | 398 kts | 315° |
| 2026-05-04 17:22 | 50.24443 | 7.75282 | 22768 ft | 402 kts | 319° |
| 2026-05-04 17:23 | 50.32080 | 7.69278 | 24170 ft | 416 kts | 333° |
| 2026-05-04 17:23 | 50.34745 | 7.67464 | 24567 ft | 419 kts | 333° |
| 2026-05-04 17:23 | 50.40089 | 7.63801 | 25357 ft | 425 kts | 332° |
| 2026-05-04 17:24 | 50.42802 | 7.61931 | 25769 ft | 427 kts | 332° |
| 2026-05-04 17:24 | 50.51034 | 7.56247 | 26921 ft | 435 kts | 331° |
| 2026-05-04 17:25 | 50.53813 | 7.54323 | 27285 ft | 438 kts | 331° |
| 2026-05-04 17:25 | 50.59081 | 7.49616 | 28003 ft | 437 kts | 321° |
| 2026-05-04 17:26 | 50.64212 | 7.44361 | 28684 ft | 444 kts | 321° |
| 2026-05-04 17:26 | 50.71967 | 7.36346 | 29799 ft | 447 kts | 318° |
| 2026-05-04 17:27 | 50.76387 | 7.29556 | 30388 ft | 437 kts | 301° |
| 2026-05-04 17:27 | 50.79874 | 7.21758 | 30919 ft | 439 kts | 299° |
| 2026-05-04 17:28 | 50.83403 | 7.13830 | 31495 ft | 442 kts | 299° |
| 2026-05-04 17:29 | 50.88702 | 7.01932 | 32582 ft | 441 kts | 299° |
| 2026-05-04 17:29 | 50.93966 | 6.90039 | 33576 ft | 441 kts | 299° |
| 2026-05-04 17:30 | 50.99215 | 6.78121 | 34577 ft | 439 kts | 299° |
| 2026-05-04 17:31 | 51.02701 | 6.70174 | 35155 ft | 438 kts | 299° |
| 2026-05-04 17:31 | 51.07894 | 6.58275 | 35855 ft | 441 kts | 300° |
| 2026-05-04 17:32 | 51.11388 | 6.50247 | 36293 ft | 442 kts | 300° |
| 2026-05-04 17:33 | 51.16624 | 6.38187 | 37046 ft | 441 kts | 300° |
| 2026-05-04 17:33 | 51.18362 | 6.34163 | 37361 ft | 440 kts | 300° |
| 2026-05-04 17:34 | 51.23549 | 6.22120 | 37975 ft | 439 kts | 300° |
| 2026-05-04 17:34 | 51.25276 | 6.18098 | 37994 ft | 439 kts | 300° |
| 2026-05-04 17:35 | 51.33710 | 5.97871 | 37975 ft | 438 kts | 299° |
| 2026-05-04 17:36 | 51.37038 | 5.89694 | 37971 ft | 440 kts | 302° |
| 2026-05-04 17:36 | 51.40535 | 5.83720 | 37963 ft | 446 kts | 315° |
| 2026-05-04 17:37 | 51.45951 | 5.76086 | 37995 ft | 446 kts | 315° |
| 2026-05-04 17:37 | 51.50598 | 5.69471 | 37988 ft | 447 kts | 315° |
| 2026-05-04 17:38 | 51.55239 | 5.62841 | 37984 ft | 447 kts | 315° |
| 2026-05-04 17:38 | 51.59102 | 5.57308 | 37985 ft | 447 kts | 314° |
| 2026-05-04 17:39 | 51.66824 | 5.46220 | 37986 ft | 448 kts | 314° |
| 2026-05-04 17:39 | 51.70717 | 5.40608 | 37996 ft | 448 kts | 314° |
| 2026-05-04 17:40 | 51.75325 | 5.33948 | 37994 ft | 448 kts | 314° |
| 2026-05-04 17:40 | 51.79965 | 5.27226 | 37994 ft | 448 kts | 314° |
| 2026-05-04 17:41 | 51.84606 | 5.20483 | 37993 ft | 449 kts | 314° |
| 2026-05-04 17:41 | 51.89244 | 5.13725 | 37993 ft | 449 kts | 314° |
| 2026-05-04 17:42 | 51.93879 | 5.06953 | 38010 ft | 449 kts | 314° |
| 2026-05-04 17:42 | 51.98478 | 5.00208 | 38006 ft | 449 kts | 314° |
| 2026-05-04 17:43 | 52.03103 | 4.93412 | 38003 ft | 448 kts | 314° |
| 2026-05-04 17:43 | 52.07716 | 4.86605 | 38017 ft | 448 kts | 314° |
| 2026-05-04 17:44 | 52.12331 | 4.79793 | 38015 ft | 448 kts | 314° |
| 2026-05-04 17:44 | 52.16916 | 4.73015 | 38014 ft | 448 kts | 314° |
| 2026-05-04 17:45 | 52.21530 | 4.66147 | 38021 ft | 449 kts | 314° |
| 2026-05-04 17:45 | 52.26129 | 4.59278 | 38018 ft | 448 kts | 314° |
| 2026-05-04 17:46 | 52.30723 | 4.52403 | 38019 ft | 448 kts | 314° |
| 2026-05-04 17:46 | 52.35317 | 4.45511 | 38017 ft | 448 kts | 314° |
| 2026-05-04 17:47 | 52.39902 | 4.38608 | 38020 ft | 448 kts | 314° |
| 2026-05-04 17:47 | 52.44448 | 4.31746 | 38020 ft | 447 kts | 314° |
| 2026-05-04 17:48 | 52.49012 | 4.24828 | 38029 ft | 446 kts | 314° |
| 2026-05-04 17:48 | 52.53569 | 4.17915 | 38034 ft | 445 kts | 314° |
| 2026-05-04 17:49 | 52.58112 | 4.10999 | 38031 ft | 445 kts | 314° |
| 2026-05-04 17:49 | 52.62646 | 4.04081 | 38034 ft | 444 kts | 314° |
| 2026-05-04 17:50 | 52.67140 | 3.97190 | 38048 ft | 444 kts | 314° |
| 2026-05-04 17:50 | 52.71659 | 3.90255 | 38040 ft | 444 kts | 314° |
| 2026-05-04 17:51 | 52.76167 | 3.83308 | 38042 ft | 443 kts | 314° |
| 2026-05-04 17:51 | 52.80664 | 3.76351 | 38053 ft | 443 kts | 314° |
| 2026-05-04 17:52 | 52.85153 | 3.69401 | 38054 ft | 442 kts | 314° |
| 2026-05-04 17:52 | 52.89610 | 3.62479 | 38062 ft | 442 kts | 314° |
| 2026-05-04 17:53 | 52.94083 | 3.55491 | 38066 ft | 442 kts | 314° |
| 2026-05-04 17:53 | 52.98560 | 3.48495 | 38066 ft | 443 kts | 314° |
| 2026-05-04 17:54 | 53.03038 | 3.41469 | 38062 ft | 443 kts | 314° |
| 2026-05-04 17:54 | 53.07400 | 3.34341 | 38058 ft | 441 kts | 307° |
| 2026-05-04 17:55 | 53.10485 | 3.25676 | 38055 ft | 434 kts | 288° |
| 2026-05-04 17:55 | 53.12001 | 3.16009 | 38055 ft | 431 kts | 280° |
| 2026-05-04 17:56 | 53.13298 | 3.06256 | 38054 ft | 432 kts | 280° |
| 2026-05-04 17:56 | 53.14584 | 2.96475 | 38050 ft | 433 kts | 280° |
| 2026-05-04 17:57 | 53.15856 | 2.86737 | 38048 ft | 433 kts | 280° |
| 2026-05-04 17:57 | 53.17132 | 2.76913 | 38050 ft | 434 kts | 280° |
| 2026-05-04 17:58 | 53.18400 | 2.67082 | 38052 ft | 434 kts | 280° |
| 2026-05-04 17:58 | 53.19654 | 2.57236 | 38059 ft | 434 kts | 280° |
| 2026-05-04 17:59 | 53.20901 | 2.47375 | 38057 ft | 435 kts | 280° |
| 2026-05-04 18:00 | 53.22762 | 2.32628 | 38054 ft | 435 kts | 280° |
| 2026-05-04 18:00 | 53.24000 | 2.22736 | 38061 ft | 435 kts | 280° |
| 2026-05-04 18:01 | 53.25226 | 2.12841 | 38059 ft | 435 kts | 280° |
| 2026-05-04 18:01 | 53.26441 | 2.02938 | 38058 ft | 435 kts | 280° |
| 2026-05-04 18:02 | 53.28236 | 1.88123 | 38049 ft | 436 kts | 280° |
| 2026-05-04 18:02 | 53.29433 | 1.78174 | 38050 ft | 437 kts | 280° |
| 2026-05-04 18:03 | 53.30627 | 1.68216 | 38054 ft | 437 kts | 280° |
| 2026-05-04 18:03 | 53.31811 | 1.58245 | 38058 ft | 437 kts | 279° |
| 2026-05-04 18:04 | 53.33001 | 1.48256 | 38060 ft | 438 kts | 281° |
| 2026-05-04 18:05 | 53.35171 | 1.33449 | 38071 ft | 439 kts | 283° |
| 2026-05-04 18:05 | 53.36673 | 1.23536 | 38070 ft | 439 kts | 283° |
| 2026-05-04 18:06 | 53.38820 | 1.08619 | 38071 ft | 439 kts | 282° |
| 2026-05-04 18:06 | 53.40212 | 0.98725 | 38073 ft | 439 kts | 282° |
| 2026-05-04 18:07 | 53.41615 | 0.88756 | 38069 ft | 439 kts | 282° |
| 2026-05-04 18:07 | 53.43008 | 0.78786 | 38067 ft | 439 kts | 282° |
| 2026-05-04 18:08 | 53.44395 | 0.68803 | 38066 ft | 440 kts | 282° |
| 2026-05-04 18:08 | 53.45779 | 0.58814 | 38064 ft | 440 kts | 282° |
| 2026-05-04 18:09 | 53.48508 | 0.38845 | 38067 ft | 441 kts | 282° |
| 2026-05-04 18:10 | 53.49875 | 0.28812 | 38070 ft | 441 kts | 282° |
| 2026-05-04 18:10 | 53.51230 | 0.18766 | 38068 ft | 441 kts | 282° |
| 2026-05-04 18:11 | 53.52565 | 0.08714 | 38069 ft | 441 kts | 282° |
| 2026-05-04 18:11 | 53.53891 | -0.01274 | 38071 ft | 441 kts | 282° |
| 2026-05-04 18:12 | 53.55224 | -0.11345 | 38060 ft | 441 kts | 282° |
| 2026-05-04 18:12 | 53.56544 | -0.21434 | 38058 ft | 442 kts | 282° |
| 2026-05-04 18:13 | 53.57198 | -0.26490 | 37849 ft | 443 kts | 282° |
| 2026-05-04 18:13 | 53.57852 | -0.31550 | 37580 ft | 443 kts | 282° |
| 2026-05-04 18:13 | 53.59149 | -0.41625 | 37041 ft | 445 kts | 282° |
| 2026-05-04 18:14 | 53.59804 | -0.46713 | 36777 ft | 446 kts | 282° |
| 2026-05-04 18:14 | 53.60462 | -0.51823 | 36516 ft | 447 kts | 282° |
| 2026-05-04 18:14 | 53.61117 | -0.56935 | 36258 ft | 447 kts | 282° |
| 2026-05-04 18:15 | 53.62420 | -0.67204 | 35751 ft | 449 kts | 282° |
| 2026-05-04 18:15 | 53.63717 | -0.77520 | 35247 ft | 451 kts | 282° |
| 2026-05-04 18:15 | 53.64361 | -0.82697 | 35008 ft | 452 kts | 282° |
| 2026-05-04 18:16 | 53.65005 | -0.87885 | 34763 ft | 453 kts | 282° |
| 2026-05-04 18:16 | 53.65650 | -0.93087 | 34523 ft | 454 kts | 282° |
| 2026-05-04 18:16 | 53.66286 | -0.98233 | 34286 ft | 454 kts | 283° |
| 2026-05-04 18:17 | 53.67571 | -1.08635 | 33766 ft | 452 kts | 283° |
| 2026-05-04 18:17 | 53.68206 | -1.13818 | 33490 ft | 451 kts | 283° |
| 2026-05-04 18:17 | 53.69459 | -1.24140 | 32897 ft | 448 kts | 283° |
| 2026-05-04 18:18 | 53.70080 | -1.29276 | 32453 ft | 445 kts | 283° |
| 2026-05-04 18:18 | 53.70772 | -1.34339 | 31946 ft | 440 kts | 289° |
| 2026-05-04 18:18 | 53.71937 | -1.39070 | 31463 ft | 434 kts | 301° |
| 2026-05-04 18:18 | 53.73594 | -1.43281 | 30985 ft | 428 kts | 311° |
| 2026-05-04 18:19 | 53.77992 | -1.49617 | 30086 ft | 415 kts | 331° |
| 2026-05-04 18:19 | 53.80455 | -1.52131 | 29619 ft | 412 kts | 330° |
| 2026-05-04 18:19 | 53.82894 | -1.54633 | 29148 ft | 409 kts | 330° |
| 2026-05-04 18:20 | 53.85315 | -1.57118 | 28589 ft | 405 kts | 330° |
| 2026-05-04 18:20 | 53.87710 | -1.59581 | 28061 ft | 400 kts | 330° |
| 2026-05-04 18:20 | 53.90078 | -1.62016 | 27547 ft | 396 kts | 330° |
| 2026-05-04 18:20 | 53.92424 | -1.64432 | 27038 ft | 392 kts | 330° |
| 2026-05-04 18:21 | 53.94746 | -1.66822 | 26559 ft | 388 kts | 330° |
| 2026-05-04 18:21 | 53.97015 | -1.69161 | 26069 ft | 385 kts | 330° |
| 2026-05-04 18:21 | 53.99298 | -1.71520 | 25670 ft | 384 kts | 329° |
| 2026-05-04 18:21 | 54.01570 | -1.73871 | 25154 ft | 382 kts | 329° |
| 2026-05-04 18:22 | 54.03833 | -1.76210 | 24649 ft | 379 kts | 329° |
| 2026-05-04 18:22 | 54.06081 | -1.78528 | 24162 ft | 376 kts | 329° |
| 2026-05-04 18:22 | 54.08314 | -1.80831 | 23684 ft | 374 kts | 329° |
| 2026-05-04 18:22 | 54.10533 | -1.83111 | 23153 ft | 371 kts | 331° |
| 2026-05-04 18:23 | 54.12891 | -1.84834 | 22647 ft | 368 kts | 343° |
| 2026-05-04 18:23 | 54.15395 | -1.85643 | 22156 ft | 365 kts | 355° |
| 2026-05-04 18:23 | 54.17890 | -1.85526 | 21682 ft | 363 kts | 8° |
| 2026-05-04 18:23 | 54.20373 | -1.84772 | 21180 ft | 362 kts | 9° |
| 2026-05-04 18:24 | 54.22838 | -1.83996 | 20706 ft | 360 kts | 10° |
| 2026-05-04 18:24 | 54.25291 | -1.83224 | 20282 ft | 357 kts | 9° |
| 2026-05-04 18:24 | 54.27720 | -1.82457 | 19861 ft | 354 kts | 9° |
| 2026-05-04 18:24 | 54.30134 | -1.81696 | 19428 ft | 352 kts | 9° |
| 2026-05-04 18:25 | 54.32536 | -1.80942 | 18998 ft | 350 kts | 9° |
| 2026-05-04 18:25 | 54.34923 | -1.80189 | 18574 ft | 348 kts | 9° |
| 2026-05-04 18:25 | 54.37300 | -1.79440 | 18139 ft | 346 kts | 9° |
| 2026-05-04 18:25 | 54.39628 | -1.78705 | 17672 ft | 344 kts | 8° |
| 2026-05-04 18:26 | 54.41979 | -1.77962 | 17218 ft | 342 kts | 8° |
| 2026-05-04 18:26 | 54.44317 | -1.77222 | 16777 ft | 341 kts | 8° |
| 2026-05-04 18:26 | 54.46642 | -1.76483 | 16355 ft | 339 kts | 8° |
| 2026-05-04 18:26 | 54.48889 | -1.75302 | 15949 ft | 340 kts | 25° |
| 2026-05-04 18:27 | 54.50930 | -1.73252 | 15530 ft | 339 kts | 30° |
| 2026-05-04 18:27 | 54.52924 | -1.71097 | 15123 ft | 338 kts | 30° |
| 2026-05-04 18:27 | 54.54909 | -1.68939 | 14736 ft | 337 kts | 30° |
| 2026-05-04 18:27 | 54.56882 | -1.66790 | 14356 ft | 335 kts | 30° |
| 2026-05-04 18:28 | 54.58845 | -1.64648 | 14002 ft | 333 kts | 30° |
| 2026-05-04 18:28 | 54.60775 | -1.62541 | 13632 ft | 331 kts | 30° |
| 2026-05-04 18:28 | 54.62712 | -1.60419 | 13236 ft | 329 kts | 30° |
| 2026-05-04 18:28 | 54.64637 | -1.58298 | 12837 ft | 327 kts | 30° |
| 2026-05-04 18:29 | 54.66542 | -1.56189 | 12449 ft | 325 kts | 30° |
| 2026-05-04 18:29 | 54.68441 | -1.54078 | 12064 ft | 323 kts | 30° |
| 2026-05-04 18:29 | 54.70325 | -1.51976 | 11677 ft | 321 kts | 30° |
| 2026-05-04 18:29 | 54.72193 | -1.49883 | 11302 ft | 319 kts | 30° |
| 2026-05-04 18:30 | 54.75619 | -1.45074 | 10625 ft | 314 kts | 40° |
| 2026-05-04 18:30 | 54.77204 | -1.42513 | 10375 ft | 308 kts | 40° |
| 2026-05-04 18:30 | 54.78730 | -1.40033 | 10144 ft | 302 kts | 40° |
| 2026-05-04 18:31 | 54.80244 | -1.37557 | 10015 ft | 298 kts | 40° |
| 2026-05-04 18:31 | 54.81745 | -1.35097 | 10017 ft | 297 kts | 40° |
| 2026-05-04 18:31 | 54.83250 | -1.32629 | 10019 ft | 297 kts | 40° |
| 2026-05-04 18:31 | 54.84753 | -1.30159 | 9819 ft | 297 kts | 40° |
| 2026-05-04 18:32 | 54.86246 | -1.27704 | 9556 ft | 295 kts | 40° |
| 2026-05-04 18:32 | 54.87864 | -1.25589 | 9283 ft | 288 kts | 21° |
| 2026-05-04 18:32 | 54.89771 | -1.24777 | 9019 ft | 282 kts | 3° |
| 2026-05-04 18:32 | 54.91712 | -1.24498 | 8744 ft | 277 kts | 1° |
| 2026-05-04 18:33 | 54.93607 | -1.24276 | 8362 ft | 276 kts | 0° |
| 2026-05-04 18:33 | 54.95514 | -1.24066 | 7974 ft | 274 kts | 0° |
| 2026-05-04 18:33 | 54.97416 | -1.23860 | 7591 ft | 273 kts | 0° |
| 2026-05-04 18:33 | 54.99304 | -1.23661 | 7214 ft | 271 kts | 0° |
| 2026-05-04 18:34 | 55.01178 | -1.23464 | 6850 ft | 268 kts | 0° |
| 2026-05-04 18:34 | 55.03013 | -1.23257 | 6481 ft | 259 kts | 0° |
| 2026-05-04 18:34 | 55.04788 | -1.23051 | 6093 ft | 252 kts | 0° |
| 2026-05-04 18:34 | 55.06502 | -1.22854 | 5797 ft | 242 kts | 0° |
| 2026-05-04 18:35 | 55.08169 | -1.22680 | 5535 ft | 237 kts | 356° |
| 2026-05-04 18:35 | 55.09705 | -1.23380 | 5281 ft | 225 kts | 324° |
| 2026-05-04 18:35 | 55.10759 | -1.25240 | 5025 ft | 217 kts | 304° |
| 2026-05-04 18:35 | 55.11590 | -1.27411 | 4776 ft | 213 kts | 301° |
| 2026-05-04 18:36 | 55.12369 | -1.29592 | 4514 ft | 210 kts | 298° |
| 2026-05-04 18:36 | 55.12832 | -1.31943 | 4357 ft | 201 kts | 278° |
| 2026-05-04 18:36 | 55.12794 | -1.34325 | 4275 ft | 193 kts | 259° |
| 2026-05-04 18:36 | 55.12338 | -1.36501 | 4092 ft | 190 kts | 248° |
| 2026-05-04 18:37 | 55.11788 | -1.38602 | 3868 ft | 191 kts | 248° |
| 2026-05-04 18:37 | 55.11235 | -1.40717 | 3605 ft | 192 kts | 248° |
| 2026-05-04 18:37 | 55.10677 | -1.42848 | 3346 ft | 194 kts | 248° |
| 2026-05-04 18:37 | 55.10129 | -1.44936 | 3103 ft | 182 kts | 248° |
| 2026-05-04 18:38 | 55.09624 | -1.46857 | 2845 ft | 171 kts | 249° |
| 2026-05-04 18:38 | 55.09155 | -1.48640 | 2633 ft | 152 kts | 250° |
| 2026-05-04 18:38 | 55.08731 | -1.50253 | 2424 ft | 141 kts | 250° |
| 2026-05-04 18:38 | 55.08329 | -1.51788 | 2234 ft | 138 kts | 250° |
| 2026-05-04 18:39 | 55.07932 | -1.53301 | 2045 ft | 137 kts | 250° |
| 2026-05-04 18:39 | 55.07536 | -1.54807 | 1863 ft | 136 kts | 250° |
| 2026-05-04 18:39 | 55.07147 | -1.56308 | 1668 ft | 136 kts | 250° |
| 2026-05-04 18:39 | 55.06748 | -1.57824 | 1476 ft | 138 kts | 249° |
| 2026-05-04 18:40 | 55.06352 | -1.59299 | 1303 ft | 135 kts | 248° |
| 2026-05-04 18:40 | 55.05963 | -1.60778 | 1110 ft | 134 kts | 248° |
| 2026-05-04 18:40 | 55.05577 | -1.62253 | 934 ft | 132 kts | 248° |
| 2026-05-04 18:40 | 55.05195 | -1.63709 | 739 ft | 131 kts | 246° |
| 2026-05-04 18:41 | 55.04810 | -1.65144 | 580 ft | 131 kts | 247° |
| 2026-05-04 18:41 | 55.04433 | -1.66558 | 410 ft | 126 kts | 248° |
| 2026-05-04 18:41 | 55.04078 | -1.67906 | 252 ft | 115 kts | 248° |
| 2026-05-04 18:41 | 55.03812 | -1.68918 | 252 ft | 54 kts | 244° |
| 2026-05-04 18:42 | 55.03724 | -1.69239 | 255 ft | 23 kts | 245° |
| 2026-05-04 18:42 | 55.03658 | -1.69486 | 257 ft | 22 kts | 245° |
| 2026-05-04 18:42 | 55.03597 | -1.69720 | 259 ft | 21 kts | 246° |
| 2026-05-04 18:42 | 55.03581 | -1.69889 | 261 ft | 12 kts | 274° |
| 2026-05-04 18:43 | 55.03587 | -1.70040 | 262 ft | 13 kts | 274° |
| 2026-05-04 18:43 | 55.03594 | -1.70200 | 265 ft | 13 kts | 274° |
| 2026-05-04 18:43 | 55.03600 | -1.70361 | 267 ft | 12 kts | 275° |
| 2026-05-04 18:43 | 55.03631 | -1.70438 | 267 ft | 8 kts | 339° |
| 2026-05-04 18:44 | 55.03687 | -1.70436 | 267 ft | 8 kts | 4° |
| 2026-05-04 18:44 | 55.03720 | -1.70432 | 267 ft | 7 kts | 4° |
| 2026-05-04 18:44 | 55.03771 | -1.70431 | 267 ft | 4 kts | 348° |
| 2026-05-04 18:44 | 55.03788 | -1.70454 | 267 ft | 4 kts | 311° |
| 2026-05-04 18:45 | 55.03799 | -1.70505 | 267 ft | 5 kts | 277° |
| 2026-05-04 18:45 | 55.03802 | -1.70580 | 267 ft | 7 kts | 274° |
| 2026-05-04 18:45 | 55.03804 | -1.70644 | 267 ft | 4 kts | 272° |
| 2026-05-04 18:45 | 55.03787 | -1.70663 | 267 ft | 3 kts | 196° |
| 2026-05-04 18:46 | 55.03772 | -1.70666 | 267 ft | 2 kts | 183° |
| 2026-05-04 18:46 | 55.03760 | -1.70667 | 267 ft | 1 kts | 184° |
| 2026-05-04 18:46 | 55.03751 | -1.70668 | 267 ft | 1 kts | 184° |
| 2026-05-04 18:46 | 55.03737 | -1.70670 | 267 ft | 2 kts | 184° |
| 2026-05-04 18:47 | 55.03730 | -1.70671 | 267 ft | 0 kts | 184° |